createdAt,value
2018-03-26T00:00:21.338Z,45.12
2018-03-26T00:02:49.686Z,45.17
2018-03-26T00:05:18.030Z,51.72
2018-03-26T00:07:46.381Z,45.97
2018-03-26T00:10:14.710Z,46.03
2018-03-26T00:12:43.064Z,46.58
2018-03-26T00:15:11.394Z,48.92
2018-03-26T00:17:39.746Z,49.08
2018-03-26T00:20:08.077Z,45.47
2018-03-26T00:22:36.429Z,46.70
2018-03-26T00:25:04.764Z,44.55
2018-03-26T00:27:33.127Z,42.85
2018-03-26T00:30:01.454Z,44.45
2018-03-26T00:32:29.807Z,40.60
2018-03-26T00:34:58.147Z,42.38
2018-03-26T00:37:26.502Z,45.90
2018-03-26T00:39:54.830Z,55.90
2018-03-26T00:42:23.173Z,46.53
2018-03-26T00:44:51.498Z,49.92
2018-03-26T00:47:19.846Z,54.40
2018-03-26T00:49:48.171Z,53.83
2018-03-26T00:52:16.518Z,53.55
2018-03-26T00:54:44.830Z,55.00
2018-03-26T00:57:13.186Z,53.55
2018-03-26T00:59:41.510Z,56.63
2018-03-26T01:02:09.861Z,58.42
2018-03-26T01:04:38.187Z,56.28
2018-03-26T01:07:06.531Z,60.12
2018-03-26T01:09:34.850Z,63.85
2018-03-26T01:12:02.480Z,53.25
2018-03-26T01:14:30.574Z,59.67
2018-03-26T01:16:58.913Z,55.35
2018-03-26T01:19:27.243Z,58.53
2018-03-26T01:21:55.590Z,64.22
2018-03-26T01:24:23.918Z,59.05
2018-03-26T01:26:52.267Z,74.03
2018-03-26T01:29:20.598Z,74.43
2018-03-26T01:31:48.922Z,76.57
2018-03-26T01:34:17.260Z,77.90
2018-03-26T01:36:45.587Z,74.68
2018-03-26T01:39:13.926Z,74.05
2018-03-26T01:41:42.242Z,73.12
2018-03-26T01:44:10.591Z,75.35
2018-03-26T01:46:38.913Z,79.05
2018-03-26T01:49:07.258Z,70.47
2018-03-26T01:51:35.586Z,69.57
2018-03-26T01:54:03.932Z,76.05
2018-03-26T01:56:32.463Z,73.22
2018-03-26T01:59:00.622Z,68.10
2018-03-26T02:01:28.927Z,67.12
2018-03-26T02:03:57.271Z,73.87
2018-03-26T02:06:25.594Z,75.65
2018-03-26T02:08:53.933Z,68.18
2018-03-26T02:11:22.253Z,80.30
2018-03-26T02:13:50.609Z,75.35
2018-03-26T02:16:18.931Z,73.43
2018-03-26T02:18:47.270Z,71.50
2018-03-26T02:21:15.607Z,76.85
2018-03-26T02:23:43.946Z,72.80
2018-03-26T02:26:12.274Z,77.82
2018-03-26T02:28:40.623Z,86.90
2018-03-26T02:31:09.271Z,82.00
2018-03-26T02:33:37.598Z,87.88
2018-03-26T02:36:05.928Z,84.80
2018-03-26T02:38:34.271Z,88.07
2018-03-26T02:41:02.588Z,88.32
2018-03-26T02:43:30.931Z,91.32
2018-03-26T02:45:59.255Z,96.10
2018-03-26T02:48:27.599Z,87.72
2018-03-26T02:50:55.919Z,96.10
2018-03-26T02:53:24.258Z,92.35
2018-03-26T02:55:52.586Z,100.57
2018-03-26T02:58:20.922Z,95.30
2018-03-26T03:00:49.247Z,109.78
2018-03-26T03:03:20.513Z,106.22
2018-03-26T03:05:48.831Z,99.85
2018-03-26T03:08:17.176Z,103.15
2018-03-26T03:10:45.501Z,110.22
2018-03-26T03:13:13.842Z,97.18
2018-03-26T03:15:42.164Z,113.12
2018-03-26T03:18:10.513Z,94.53
2018-03-26T03:20:38.841Z,101.62
2018-03-26T03:23:07.178Z,95.97
2018-03-26T03:25:35.494Z,98.12
2018-03-26T03:28:03.843Z,108.37
2018-03-26T03:30:32.167Z,90.30
2018-03-26T03:33:00.528Z,94.25
2018-03-26T03:35:28.849Z,92.90
2018-03-26T03:37:57.173Z,94.53
2018-03-26T03:40:25.514Z,98.57
2018-03-26T03:42:53.844Z,100.68
2018-03-26T03:45:22.202Z,103.07
2018-03-26T03:47:50.522Z,97.43
2018-03-26T03:50:18.862Z,99.35
2018-03-26T03:52:47.190Z,80.93
2018-03-26T03:55:15.526Z,85.70
2018-03-26T03:57:43.846Z,90.80
2018-03-26T04:00:12.209Z,95.95
2018-03-26T04:02:40.513Z,84.62
2018-03-26T04:05:08.861Z,88.97
2018-03-26T04:07:37.183Z,91.97
2018-03-26T04:10:05.522Z,93.50
2018-03-26T04:12:33.834Z,93.20
2018-03-26T04:15:02.183Z,90.53
2018-03-26T04:17:30.506Z,102.30
2018-03-26T04:19:58.854Z,92.22
2018-03-26T04:22:27.173Z,88.80
2018-03-26T04:24:55.513Z,95.80
2018-03-26T04:27:23.835Z,88.78
2018-03-26T04:29:52.178Z,98.90
2018-03-26T04:32:20.498Z,97.30
2018-03-26T04:34:48.842Z,94.68
2018-03-26T04:37:17.249Z,93.17
2018-03-26T04:39:45.582Z,104.43
2018-03-26T04:42:13.908Z,95.57
2018-03-26T04:44:42.257Z,100.73
2018-03-26T04:47:10.586Z,99.57
2018-03-26T04:49:38.930Z,109.90
2018-03-26T04:52:07.258Z,125.00
2018-03-26T04:54:35.606Z,117.67
2018-03-26T04:57:03.938Z,121.97
2018-03-26T04:59:32.873Z,120.53
2018-03-26T05:02:01.201Z,110.97
2018-03-26T05:04:29.550Z,118.93
2018-03-26T05:06:58.826Z,106.17
2018-03-26T05:09:27.182Z,104.37
2018-03-26T05:11:55.505Z,101.87
2018-03-26T05:14:23.927Z,103.20
2018-03-26T05:16:52.190Z,109.90
2018-03-26T05:19:20.543Z,101.93
2018-03-26T05:21:48.877Z,109.67
2018-03-26T05:24:17.231Z,110.88
2018-03-26T05:26:45.554Z,119.57
2018-03-26T05:29:13.918Z,116.37
2018-03-26T05:31:42.247Z,119.10
2018-03-26T05:34:10.599Z,114.40
2018-03-26T05:36:38.931Z,122.22
2018-03-26T05:39:07.253Z,117.37
2018-03-26T05:41:35.602Z,123.03
2018-03-26T05:44:03.932Z,109.78
2018-03-26T05:46:32.292Z,125.33
2018-03-26T05:49:00.619Z,114.17
2018-03-26T05:51:28.967Z,115.70
2018-03-26T05:53:57.293Z,113.97
2018-03-26T05:56:25.749Z,107.33
2018-03-26T05:58:54.058Z,115.47
2018-03-26T06:01:26.888Z,111.73
2018-03-26T06:03:55.746Z,133.07
2018-03-26T06:06:24.090Z,116.97
2018-03-26T06:08:52.417Z,123.83
2018-03-26T06:11:20.774Z,112.93
2018-03-26T06:13:49.123Z,120.60
2018-03-26T06:16:17.450Z,119.33
2018-03-26T06:18:46.138Z,111.75
2018-03-26T06:21:14.486Z,121.77
2018-03-26T06:23:42.814Z,125.67
2018-03-26T06:26:12.057Z,133.70
2018-03-26T06:28:40.390Z,120.80
2018-03-26T06:31:08.737Z,118.07
2018-03-26T06:33:37.074Z,110.60
2018-03-26T06:39:33.925Z,113.28
2018-03-26T06:42:02.338Z,130.30
2018-03-26T06:44:30.661Z,122.33
2018-03-26T06:46:59.015Z,116.30
2018-03-26T06:49:27.346Z,121.60
2018-03-26T06:51:55.688Z,122.57
2018-03-26T06:54:24.022Z,118.77
2018-03-26T06:56:52.374Z,110.57
2018-03-26T06:59:20.697Z,108.60
2018-03-26T07:01:49.049Z,108.70
2018-03-26T07:04:17.375Z,113.60
2018-03-26T07:06:46.400Z,134.20
2018-03-26T07:09:14.690Z,128.00
2018-03-26T07:11:43.043Z,131.73
2018-03-26T07:14:11.376Z,117.73
2018-03-26T07:16:39.738Z,121.70
2018-03-26T07:19:08.061Z,116.60
2018-03-26T07:21:36.432Z,127.07
2018-03-26T07:24:04.750Z,119.53
2018-03-26T07:26:34.102Z,137.82
2018-03-26T07:29:02.435Z,112.93
2018-03-26T07:31:30.790Z,115.23
2018-03-26T07:33:59.190Z,110.45
2018-03-26T07:36:27.534Z,109.77
2018-03-26T07:38:55.910Z,117.50
2018-03-26T07:41:24.622Z,121.00
2018-03-26T07:43:53.010Z,110.13
2018-03-26T07:46:22.626Z,125.40
2018-03-26T07:48:50.979Z,115.70
2018-03-26T07:51:19.401Z,142.77
2018-03-26T07:53:47.754Z,122.53
2018-03-26T07:56:16.114Z,108.33
2018-03-26T07:58:44.443Z,122.78
2018-03-26T08:01:12.789Z,122.60
2018-03-26T08:03:41.122Z,102.80
2018-03-26T08:06:09.563Z,117.47
2018-03-26T08:08:37.901Z,115.88
2018-03-26T08:11:06.376Z,125.43
2018-03-26T08:13:34.694Z,119.67
2018-03-26T08:16:03.048Z,141.60
2018-03-26T08:18:31.383Z,117.53
2018-03-26T08:20:59.730Z,118.20
2018-03-26T08:23:28.070Z,110.10
2018-03-26T08:25:56.898Z,116.33
2018-03-26T08:28:25.227Z,119.40
2018-03-26T08:30:53.578Z,109.00
2018-03-26T08:33:21.917Z,111.15
2018-03-26T08:35:50.290Z,101.23
2018-03-26T08:38:18.626Z,98.35
2018-03-26T08:40:46.949Z,89.28
2018-03-26T08:43:15.290Z,92.28
2018-03-26T08:45:43.611Z,102.18
2018-03-26T08:48:11.966Z,109.10
2018-03-26T08:50:40.287Z,85.30
2018-03-26T08:53:08.627Z,86.03
2018-03-26T08:55:37.174Z,73.93
2018-03-26T08:58:05.506Z,80.80
2018-03-26T09:00:33.833Z,89.60
2018-03-26T09:03:02.178Z,89.30
2018-03-26T09:05:30.502Z,84.72
2018-03-26T09:07:58.838Z,79.60
2018-03-26T09:10:27.168Z,116.55
2018-03-26T09:12:55.506Z,108.97
2018-03-26T09:15:23.835Z,107.18
2018-03-26T09:17:52.180Z,110.60
2018-03-26T09:20:20.509Z,106.65
2018-03-26T09:22:48.849Z,97.72
2018-03-26T09:25:17.174Z,98.95
2018-03-26T09:27:45.543Z,85.62
2018-03-26T09:30:13.866Z,102.65
2018-03-26T09:32:42.206Z,151.00
2018-03-26T09:35:10.535Z,132.57
2018-03-26T09:37:38.884Z,130.87
2018-03-26T09:40:07.205Z,118.00
2018-03-26T09:42:35.550Z,96.32
2018-03-26T09:45:03.863Z,87.35
2018-03-26T09:47:32.198Z,88.32
2018-03-26T09:50:00.522Z,91.30
2018-03-26T09:52:28.867Z,104.10
2018-03-26T09:54:57.194Z,128.35
2018-03-26T09:57:25.542Z,150.62
2018-03-26T09:59:53.865Z,150.00
2018-03-26T10:02:22.210Z,137.40
2018-03-26T10:04:50.539Z,127.97
2018-03-26T10:07:18.886Z,128.15
2018-03-26T10:09:47.214Z,127.32
2018-03-26T10:12:15.554Z,81.82
2018-03-26T10:14:43.874Z,91.25
2018-03-26T10:17:12.213Z,84.60
2018-03-26T10:19:40.559Z,74.65
2018-03-26T10:22:08.878Z,69.78
2018-03-26T10:24:37.196Z,71.05
2018-03-26T10:27:05.534Z,65.32
2018-03-26T10:29:33.846Z,60.30
2018-03-26T10:32:02.190Z,72.47
2018-03-26T10:34:30.506Z,61.10
2018-03-26T10:36:58.846Z,51.50
2018-03-26T10:39:27.281Z,49.93
2018-03-26T10:41:55.610Z,54.40
2018-03-26T10:44:24.115Z,51.63
2018-03-26T10:46:52.451Z,52.53
2018-03-26T10:49:20.798Z,49.33
2018-03-26T10:51:49.138Z,52.33
2018-03-26T10:54:17.486Z,60.30
2018-03-26T10:56:46.014Z,50.37
2018-03-26T10:59:14.397Z,73.20
2018-03-26T11:01:42.718Z,72.97
2018-03-26T11:04:11.067Z,60.65
2018-03-26T11:06:39.387Z,53.23
2018-03-26T11:09:07.730Z,39.00
2018-03-26T11:11:36.054Z,47.27
2018-03-26T11:14:04.403Z,45.77
2018-03-26T11:16:32.732Z,42.33
2018-03-26T11:19:01.268Z,46.42
2018-03-26T11:21:29.598Z,44.47
2018-03-26T11:23:57.951Z,34.57
2018-03-26T11:26:26.275Z,33.27
2018-03-26T11:28:54.623Z,32.47
2018-03-26T11:31:23.019Z,39.87
2018-03-26T11:33:51.545Z,33.20
2018-03-26T11:36:19.904Z,36.37
2018-03-26T11:38:48.219Z,35.83
2018-03-26T11:41:16.549Z,31.37
2018-03-26T11:43:44.898Z,33.13
2018-03-26T11:46:14.235Z,40.87
2018-03-26T11:48:42.719Z,39.75
2018-03-26T11:51:11.150Z,38.08
2018-03-26T11:53:39.672Z,25.57
2018-03-26T11:56:08.118Z,31.87
2018-03-26T11:58:37.601Z,35.58
2018-03-26T12:01:05.950Z,70.50
2018-03-26T12:03:34.302Z,41.73
2018-03-26T12:06:02.690Z,44.97
2018-03-26T12:08:31.031Z,41.87
2018-03-26T12:10:59.358Z,38.60
2018-03-26T12:13:27.726Z,76.75
2018-03-26T12:15:56.071Z,74.80
2018-03-26T12:18:24.886Z,72.40
2018-03-26T12:21:02.669Z,124.40
2018-03-26T12:23:42.851Z,72.60
2018-03-26T12:26:12.174Z,69.17
2018-03-26T12:28:52.205Z,77.30
2018-03-26T12:31:20.554Z,56.80
2018-03-26T12:34:00.706Z,43.15
2018-03-26T12:36:30.152Z,35.73
2018-03-26T12:38:58.642Z,39.22
2018-03-26T12:41:27.007Z,37.03
2018-03-26T12:43:55.367Z,24.63
2018-03-26T12:46:36.550Z,26.63
2018-03-26T12:49:04.910Z,24.43
2018-03-26T12:51:45.213Z,36.03
2018-03-26T12:54:13.566Z,29.58
2018-03-26T12:56:41.893Z,20.00
2018-03-26T12:59:10.236Z,29.07
2018-03-26T13:01:50.278Z,42.67
2018-03-26T13:04:18.622Z,45.47
2018-03-26T13:06:47.036Z,85.97
2018-03-26T13:09:15.403Z,89.23
2018-03-26T13:11:43.722Z,95.90
2018-03-26T13:14:12.070Z,61.27
2018-03-26T13:16:40.398Z,67.13
2018-03-26T13:19:08.750Z,66.45
2018-03-26T13:21:37.079Z,104.53
2018-03-26T13:24:05.426Z,68.60
2018-03-26T13:26:34.769Z,48.58
2018-03-26T13:29:03.215Z,42.13
2018-03-26T13:31:31.592Z,46.27
2018-03-26T13:34:00.271Z,46.08
2018-03-26T13:36:28.587Z,52.10
2018-03-26T13:38:56.955Z,100.33
2018-03-26T13:41:25.278Z,108.45
2018-03-26T13:43:53.638Z,134.00
2018-03-26T13:46:21.961Z,116.80
2018-03-26T13:48:50.382Z,101.37
2018-03-26T13:51:18.733Z,98.77
2018-03-26T13:53:48.087Z,78.12
2018-03-26T13:56:16.432Z,56.20
2018-03-26T13:58:44.761Z,48.10
2018-03-26T14:01:13.103Z,44.27
2018-03-26T14:03:41.426Z,63.90
2018-03-26T14:06:10.011Z,56.70
2018-03-26T14:08:50.114Z,36.93
2018-03-26T14:11:30.106Z,35.15
2018-03-26T14:14:10.095Z,30.88
2018-03-26T14:16:51.325Z,37.80
2018-03-26T14:19:20.942Z,38.28
2018-03-26T14:21:49.320Z,32.43
2018-03-26T14:24:18.109Z,39.50
2018-03-26T14:26:47.830Z,43.65
2018-03-26T14:29:16.334Z,70.97
2018-03-26T14:31:44.745Z,62.73
2018-03-26T14:34:13.779Z,46.13
2018-03-26T14:36:42.104Z,38.63
2018-03-26T14:39:10.497Z,47.27
2018-03-26T14:41:39.085Z,45.73
2018-03-26T14:44:07.552Z,35.70
2018-03-26T14:46:36.770Z,38.40
2018-03-26T14:49:05.160Z,34.08
2018-03-26T14:51:33.662Z,40.30
2018-03-26T14:54:02.180Z,31.87
2018-03-26T14:56:31.499Z,35.97
2018-03-26T14:58:59.854Z,31.98
2018-03-26T15:01:28.268Z,33.40
2018-03-26T15:04:01.004Z,36.60
2018-03-26T15:06:30.302Z,35.93
2018-03-26T15:08:58.736Z,32.57
2018-03-26T15:11:27.662Z,41.05
2018-03-26T15:13:56.006Z,51.93
2018-03-26T15:16:24.409Z,42.40
2018-03-26T15:18:52.878Z,37.63
2018-03-26T15:21:21.279Z,34.63
2018-03-26T15:23:49.798Z,33.30
2018-03-26T15:26:19.258Z,33.05
2018-03-26T15:28:47.705Z,37.27
2018-03-26T15:31:16.096Z,33.47
2018-03-26T15:33:44.519Z,40.20
2018-03-26T15:36:12.875Z,36.27
2018-03-26T15:41:21.863Z,35.35
2018-03-26T15:43:50.187Z,39.50
2018-03-26T15:46:18.542Z,42.90
2018-03-26T15:48:46.890Z,36.47
2018-03-26T15:51:15.278Z,38.88
2018-03-26T15:53:43.590Z,35.35
2018-03-26T15:56:12.980Z,33.08
2018-03-26T15:58:46.174Z,30.93
2018-03-26T16:01:19.670Z,36.73
2018-03-26T16:03:48.062Z,29.03
2018-03-26T16:06:16.690Z,31.90
2018-03-26T16:08:45.039Z,29.63
2018-03-26T16:11:13.485Z,36.37
2018-03-26T16:13:42.081Z,30.70
2018-03-26T16:16:11.166Z,27.60
2018-03-26T16:18:39.499Z,32.63
2018-03-26T16:21:07.838Z,31.87
2018-03-26T16:23:36.158Z,27.07
2018-03-26T16:26:04.503Z,24.90
2018-03-26T16:28:32.854Z,26.17
2018-03-26T16:31:01.194Z,26.63
2018-03-26T16:33:29.613Z,30.77
2018-03-26T16:35:57.971Z,34.83
2018-03-26T16:38:26.304Z,27.42
2018-03-26T16:40:54.684Z,25.70
2018-03-26T16:43:23.042Z,29.80
2018-03-26T16:45:51.394Z,36.37
2018-03-26T16:48:19.798Z,29.50
2018-03-26T16:50:48.153Z,26.93
2018-03-26T16:53:16.952Z,33.40
2018-03-26T16:55:45.286Z,27.20
2018-03-26T16:58:13.626Z,26.20
2018-03-26T17:00:41.976Z,24.10
2018-03-26T17:03:10.970Z,28.15
2018-03-26T17:05:39.316Z,28.60
2018-03-26T17:08:07.678Z,26.33
2018-03-26T17:10:36.010Z,22.02
2018-03-26T17:13:04.379Z,35.40
2018-03-26T17:15:32.874Z,34.23
2018-03-26T17:18:01.246Z,44.13
2018-03-26T17:20:29.618Z,35.67
2018-03-26T17:22:57.970Z,27.27
2018-03-26T17:25:27.217Z,32.05
2018-03-26T17:27:55.621Z,36.57
2018-03-26T17:30:23.978Z,30.85
2018-03-26T17:32:52.410Z,31.00
2018-03-26T17:35:21.646Z,31.20
2018-03-26T17:37:50.105Z,31.27
2018-03-26T17:40:18.461Z,31.93
2018-03-26T17:42:46.903Z,30.33
2018-03-26T17:45:15.362Z,32.80
2018-03-26T17:47:43.761Z,30.63
2018-03-26T17:50:12.166Z,24.87
2018-03-26T17:52:40.502Z,23.13
2018-03-26T17:55:08.826Z,18.37
2018-03-26T17:57:37.490Z,23.47
2018-03-26T18:00:05.996Z,25.10
2018-03-26T18:02:34.423Z,25.37
2018-03-26T18:05:02.774Z,26.00
2018-03-26T18:07:32.125Z,22.13
2018-03-26T18:10:00.623Z,21.62
2018-03-26T18:12:28.949Z,21.80
2018-03-26T18:14:57.309Z,22.58
2018-03-26T18:17:25.672Z,26.00
2018-03-26T18:19:54.110Z,21.40
2018-03-26T18:22:22.496Z,26.53
2018-03-26T18:24:50.851Z,23.83
2018-03-26T18:27:20.186Z,20.65
2018-03-26T18:29:48.541Z,24.75
2018-03-26T18:32:17.039Z,26.43
2018-03-26T18:34:45.517Z,29.77
2018-03-26T18:37:14.819Z,23.30
2018-03-26T18:39:43.141Z,23.97
2018-03-26T18:42:11.596Z,26.63
2018-03-26T18:44:39.919Z,29.98
2018-03-26T18:47:08.343Z,27.80
2018-03-26T18:49:36.711Z,26.43
2018-03-26T18:52:05.054Z,29.10
2018-03-26T18:54:33.451Z,27.07
2018-03-26T18:57:01.898Z,30.87
2018-03-26T18:59:30.272Z,32.08
2018-03-26T19:01:58.667Z,29.80
2018-03-26T19:04:27.019Z,30.07
2018-03-26T19:06:56.460Z,27.95
2018-03-26T19:09:24.819Z,29.70
2018-03-26T19:11:53.176Z,26.67
2018-03-26T19:14:21.541Z,24.30
2018-03-26T19:16:49.895Z,35.53
2018-03-26T19:19:18.260Z,24.53
2018-03-26T19:21:46.574Z,30.47
2018-03-26T19:24:15.188Z,30.05
2018-03-26T19:26:43.683Z,25.70
2018-03-26T19:29:12.208Z,28.05
2018-03-26T19:31:45.582Z,25.30
2018-03-26T19:34:14.074Z,25.63
2018-03-26T19:36:43.394Z,22.67
2018-03-26T19:39:11.789Z,23.60
2018-03-26T19:41:40.215Z,27.40
2018-03-26T19:44:09.133Z,31.20
2018-03-26T19:46:38.598Z,24.00
2018-03-26T19:49:07.064Z,24.70
2018-03-26T19:51:36.290Z,31.47
2018-03-26T19:54:04.877Z,24.52
2018-03-26T19:56:33.210Z,28.63
2018-03-26T19:59:01.557Z,25.10
2018-03-26T20:01:30.014Z,25.03
2018-03-26T20:03:58.409Z,26.03
2018-03-26T20:06:26.826Z,26.63
2018-03-26T20:08:55.226Z,31.02
2018-03-26T20:11:23.650Z,29.77
2018-03-26T20:13:52.029Z,32.63
2018-03-26T20:16:20.561Z,25.77
2018-03-26T20:18:49.008Z,24.02
2018-03-26T20:21:17.551Z,27.30
2018-03-26T20:23:45.910Z,28.13
2018-03-26T20:26:14.261Z,31.47
2018-03-26T20:28:42.599Z,30.20
2018-03-26T20:31:10.922Z,32.10
2018-03-26T20:33:39.291Z,34.13
2018-03-26T20:36:07.628Z,27.87
2018-03-26T20:38:36.106Z,35.30
2018-03-26T20:41:04.425Z,27.07
2018-03-26T20:43:32.829Z,31.70
2018-03-26T20:46:01.158Z,25.87
2018-03-26T20:48:29.510Z,32.15
2018-03-26T20:50:57.838Z,25.67
2018-03-26T20:53:26.182Z,28.70
2018-03-26T20:55:54.523Z,25.63
2018-03-26T20:58:22.865Z,41.77
2018-03-26T21:00:51.190Z,56.87
2018-03-26T21:03:19.550Z,35.20
2018-03-26T21:05:47.869Z,27.40
2018-03-26T21:08:16.222Z,25.23
2018-03-26T21:10:44.549Z,30.33
2018-03-26T21:13:12.905Z,29.10
2018-03-26T21:15:41.234Z,31.80
2018-03-26T21:18:09.576Z,39.83
2018-03-26T21:20:37.909Z,32.63
2018-03-26T21:23:06.270Z,29.08
2018-03-26T21:25:34.595Z,31.27
2018-03-26T21:28:02.929Z,38.17
2018-03-26T21:30:31.270Z,32.33
2018-03-26T21:32:59.590Z,29.40
2018-03-26T21:35:28.331Z,28.00
2018-03-26T21:37:56.969Z,29.30
2018-03-26T21:40:25.317Z,27.30
2018-03-26T21:42:53.649Z,28.50
2018-03-26T21:45:22.008Z,33.03
2018-03-26T21:47:50.336Z,36.97
2018-03-26T21:50:18.684Z,29.17
2018-03-26T21:52:47.016Z,25.57
2018-03-26T21:55:15.365Z,26.27
2018-03-26T21:57:43.699Z,30.67
2018-03-26T22:00:18.002Z,27.30
2018-03-26T22:02:46.337Z,30.80
2018-03-26T22:05:14.717Z,24.70
2018-03-26T22:07:43.047Z,30.70
2018-03-26T22:10:11.404Z,25.70
2018-03-26T22:12:39.727Z,36.03
2018-03-26T22:15:08.092Z,24.30
2018-03-26T22:17:37.464Z,29.90
2018-03-26T22:20:05.872Z,26.70
2018-03-26T22:22:34.156Z,23.43
2018-03-26T22:25:02.518Z,28.27
2018-03-26T22:27:30.929Z,30.53
2018-03-26T22:29:59.275Z,25.70
2018-03-26T22:32:27.598Z,31.20
2018-03-26T22:34:55.987Z,26.40
2018-03-26T22:37:28.053Z,28.64
2018-03-26T22:39:57.075Z,32.65
2018-03-26T22:42:25.406Z,28.30
2018-03-26T22:44:53.838Z,26.60
2018-03-26T22:47:22.235Z,31.80
2018-03-26T22:49:50.591Z,32.38
2018-03-26T22:52:18.910Z,34.60
2018-03-26T22:54:47.259Z,39.67
2018-03-26T22:57:15.586Z,37.87
2018-03-26T22:59:43.936Z,39.43
2018-03-26T23:02:12.266Z,40.53
2018-03-26T23:04:40.616Z,36.93
2018-03-26T23:07:08.945Z,35.60
2018-03-26T23:09:37.291Z,39.43
2018-03-26T23:12:05.627Z,48.60
2018-03-26T23:14:33.977Z,36.93
2018-03-26T23:17:02.318Z,35.10
2018-03-26T23:19:31.354Z,46.97
2018-03-26T23:21:59.679Z,38.77
2018-03-26T23:24:28.031Z,36.97
2018-03-26T23:26:56.358Z,39.70
2018-03-26T23:29:24.711Z,39.90
2018-03-26T23:31:53.038Z,40.13
2018-03-26T23:34:21.385Z,38.88
2018-03-26T23:36:49.718Z,37.83
2018-03-26T23:39:18.046Z,43.00
2018-03-26T23:41:46.391Z,42.33
2018-03-26T23:44:14.714Z,38.42
2018-03-26T23:46:43.054Z,44.35
2018-03-26T23:49:11.365Z,42.90
2018-03-26T23:51:39.705Z,38.97
2018-03-26T23:54:08.030Z,41.37
2018-03-26T23:56:36.370Z,33.28
2018-03-26T23:59:04.700Z,35.58
